Terminal Aerodrome Forecast
Issued by NWS

Home | Current Version | Previous Version | Text Only | Print | Product List | Glossary On
Versions: 1 2 3 4 5 6 7 8 9 10 11 12 13 14 15 16 17 18
000
FTAK31 PAJN 051700
TAFAYA
TAF
PAYA 051737Z 0518/0618 VRB03KT P6SM BKN150
     FM051900 30005KT P6SM SCT150 BKN250
     FM052200 27007KT P6SM FEW150 SCT250
     FM060400 VRB03KT P6SM FEW250
     FM060900 00000KT 3SM BR BKN003
     FM061100 00000KT 1/2SM FG OVC001
     FM061700 VRB03KT P6SM OVC005
      AMD LTD TO CLD VIS AND WIND 0601/0610=

USA.gov is the U.S. government's official web portal to all federal, state and local government web resources and services.